Аэропорт: Абакан. Абакан

ICAO: UNAA

METAR:
2018/05/20 23:00
UNAA 202300Z 12002MPS CAVOK 01/M04 Q1027 R02/090065 NOSIG RMK QFE748
METAR:
2018/05/20 21:21
TAF UNAA 201952Z 2021/2121 21003G10MPS 9999 SCT015CB 
      TEMPO 2103/2121 24008G14MPS 3100 -SHRA FEW004 BKN011CB